sensor_id;sensor_type;location;lat;lon;timestamp;pressure;altitude;pressure_sealevel;temperature;humidity
65010;BME280;51556;50.002;22.014;2022-09-13T00:00:40;99041.98;;;14.24;73.02
65010;BME280;51556;50.002;22.014;2022-09-13T00:03:10;99046.39;;;14.24;72.95
65010;BME280;51556;50.002;22.014;2022-09-13T00:05:36;99044.20;;;14.21;72.65
65010;BME280;51556;50.002;22.014;2022-09-13T00:08:03;99042.15;;;14.20;72.72
65010;BME280;51556;50.002;22.014;2022-09-13T00:10:29;99045.00;;;14.19;72.65
65010;BME280;51556;50.002;22.014;2022-09-13T00:12:55;99042.63;;;14.21;72.77
65010;BME280;51556;50.002;22.014;2022-09-13T00:15:20;99034.02;;;14.20;72.73
65010;BME280;51556;50.002;22.014;2022-09-13T00:17:46;99034.59;;;14.19;73.02
65010;BME280;51556;50.002;22.014;2022-09-13T00:20:12;99035.53;;;14.18;73.19
65010;BME280;51556;50.002;22.014;2022-09-13T00:22:37;99040.35;;;14.16;73.31
65010;BME280;51556;50.002;22.014;2022-09-13T00:25:04;99040.28;;;14.18;73.42
65010;BME280;51556;50.002;22.014;2022-09-13T00:27:35;99039.91;;;14.19;73.33
65010;BME280;51556;50.002;22.014;2022-09-13T00:30:02;99038.99;;;14.19;73.40
65010;BME280;51556;50.002;22.014;2022-09-13T00:32:29;99032.31;;;14.18;73.34
65010;BME280;51556;50.002;22.014;2022-09-13T00:34:54;99037.83;;;14.22;72.76
65010;BME280;51556;50.002;22.014;2022-09-13T00:37:20;99038.38;;;14.21;73.27
65010;BME280;51556;50.002;22.014;2022-09-13T00:39:45;99037.27;;;14.22;73.08
65010;BME280;51556;50.002;22.014;2022-09-13T00:42:11;99038.22;;;14.21;72.87
65010;BME280;51556;50.002;22.014;2022-09-13T00:44:58;99037.80;;;14.18;73.08
65010;BME280;51556;50.002;22.014;2022-09-13T00:50:32;99041.28;;;14.15;72.87
65010;BME280;51556;50.002;22.014;2022-09-13T00:53:15;99037.60;;;14.15;72.95
65010;BME280;51556;50.002;22.014;2022-09-13T00:55:50;99037.19;;;14.12;73.22
65010;BME280;51556;50.002;22.014;2022-09-13T00:58:26;99035.49;;;14.11;73.21
65010;BME280;51556;50.002;22.014;2022-09-13T01:00:55;99035.58;;;14.09;73.24
65010;BME280;51556;50.002;22.014;2022-09-13T01:03:26;99038.80;;;14.09;73.21
65010;BME280;51556;50.002;22.014;2022-09-13T01:06:17;99035.41;;;14.09;73.29
65010;BME280;51556;50.002;22.014;2022-09-13T01:08:47;99039.14;;;14.16;73.45
65010;BME280;51556;50.002;22.014;2022-09-13T01:12:05;99041.79;;;14.20;73.04
65010;BME280;51556;50.002;22.014;2022-09-13T01:14:06;99042.37;;;14.23;72.84
65010;BME280;51556;50.002;22.014;2022-09-13T01:16:33;99040.78;;;14.23;72.68
65010;BME280;51556;50.002;22.014;2022-09-13T01:18:59;99042.94;;;14.18;72.47
65010;BME280;51556;50.002;22.014;2022-09-13T01:37:54;99051.82;;;14.17;73.60
65010;BME280;51556;50.002;22.014;2022-09-13T01:40:23;99057.89;;;14.20;73.31
65010;BME280;51556;50.002;22.014;2022-09-13T01:43:10;99053.69;;;14.19;73.40
65010;BME280;51556;50.002;22.014;2022-09-13T01:48:20;99047.67;;;14.23;73.72
65010;BME280;51556;50.002;22.014;2022-09-13T01:56:04;99045.13;;;14.25;74.04
65010;BME280;51556;50.002;22.014;2022-09-13T01:58:40;99042.03;;;14.26;73.81
65010;BME280;51556;50.002;22.014;2022-09-13T02:01:21;99034.23;;;14.30;73.74
65010;BME280;51556;50.002;22.014;2022-09-13T02:06:33;99030.20;;;14.37;73.70
65010;BME280;51556;50.002;22.014;2022-09-13T02:09:07;99026.48;;;14.42;73.63
65010;BME280;51556;50.002;22.014;2022-09-13T02:11:35;99022.54;;;14.39;73.36
65010;BME280;51556;50.002;22.014;2022-09-13T02:14:33;99021.07;;;14.32;73.40
65010;BME280;51556;50.002;22.014;2022-09-13T02:17:20;99015.98;;;14.23;73.37
65010;BME280;51556;50.002;22.014;2022-09-13T02:19:56;99010.42;;;14.21;73.64
65010;BME280;51556;50.002;22.014;2022-09-13T02:22:27;99015.29;;;14.23;73.60
65010;BME280;51556;50.002;22.014;2022-09-13T02:24:59;99011.67;;;14.20;73.37
65010;BME280;51556;50.002;22.014;2022-09-13T02:27:30;99010.42;;;14.17;73.45
65010;BME280;51556;50.002;22.014;2022-09-13T02:30:03;99009.45;;;14.11;73.77
65010;BME280;51556;50.002;22.014;2022-09-13T02:32:39;99007.05;;;14.06;73.77
65010;BME280;51556;50.002;22.014;2022-09-13T02:37:52;99000.06;;;14.03;73.86
65010;BME280;51556;50.002;22.014;2022-09-13T02:40:25;99005.16;;;14.00;73.68
65010;BME280;51556;50.002;22.014;2022-09-13T02:42:58;99005.04;;;13.99;73.97
65010;BME280;51556;50.002;22.014;2022-09-13T02:45:30;99000.61;;;13.99;74.01
65010;BME280;51556;50.002;22.014;2022-09-13T02:48:07;98999.33;;;14.00;73.57
65010;BME280;51556;50.002;22.014;2022-09-13T03:01:00;98999.64;;;13.97;73.48
65010;BME280;51556;50.002;22.014;2022-09-13T03:03:26;98998.80;;;13.96;73.29
65010;BME280;51556;50.002;22.014;2022-09-13T03:05:52;99001.26;;;13.93;73.34
65010;BME280;51556;50.002;22.014;2022-09-13T03:08:18;99001.81;;;13.92;73.37
65010;BME280;51556;50.002;22.014;2022-09-13T03:22:01;99003.30;;;13.94;72.94
65010;BME280;51556;50.002;22.014;2022-09-13T03:24:58;99003.88;;;13.93;73.18
65010;BME280;51556;50.002;22.014;2022-09-13T03:27:39;98999.42;;;13.90;73.67
65010;BME280;51556;50.002;22.014;2022-09-13T03:30:08;98996.45;;;13.85;73.33
65010;BME280;51556;50.002;22.014;2022-09-13T03:33:09;98998.27;;;13.80;73.57
65010;BME280;51556;50.002;22.014;2022-09-13T03:35:46;98998.63;;;13.80;73.34
65010;BME280;51556;50.002;22.014;2022-09-13T03:38:23;98989.15;;;13.78;73.21
65010;BME280;51556;50.002;22.014;2022-09-13T03:43:44;98989.05;;;13.73;73.02
65010;BME280;51556;50.002;22.014;2022-09-13T03:46:21;98986.83;;;13.68;72.79
65010;BME280;51556;50.002;22.014;2022-09-13T03:48:49;98992.71;;;13.62;72.67
65010;BME280;51556;50.002;22.014;2022-09-13T03:51:15;98994.15;;;13.58;72.69
65010;BME280;51556;50.002;22.014;2022-09-13T03:53:45;98995.66;;;13.51;72.41
65010;BME280;51556;50.002;22.014;2022-09-13T03:56:17;98987.86;;;13.44;72.47
65010;BME280;51556;50.002;22.014;2022-09-13T03:58:45;98990.34;;;13.35;72.21
65010;BME280;51556;50.002;22.014;2022-09-13T04:01:10;98992.02;;;13.29;72.10
65010;BME280;51556;50.002;22.014;2022-09-13T04:03:37;98993.11;;;13.24;72.25
65010;BME280;51556;50.002;22.014;2022-09-13T04:06:03;98991.40;;;13.19;72.13
65010;BME280;51556;50.002;22.014;2022-09-13T04:08:30;98991.45;;;13.13;72.04
65010;BME280;51556;50.002;22.014;2022-09-13T04:10:56;98991.88;;;13.06;71.80
65010;BME280;51556;50.002;22.014;2022-09-13T04:13:22;98993.30;;;13.02;72.23
65010;BME280;51556;50.002;22.014;2022-09-13T04:15:48;98993.83;;;12.98;72.18
65010;BME280;51556;50.002;22.014;2022-09-13T04:18:15;98989.11;;;12.97;72.38
65010;BME280;51556;50.002;22.014;2022-09-13T04:20:41;98984.73;;;12.96;72.56
65010;BME280;51556;50.002;22.014;2022-09-13T04:23:07;98984.61;;;12.99;72.62
65010;BME280;51556;50.002;22.014;2022-09-13T04:25:32;98983.65;;;13.00;72.41
65010;BME280;51556;50.002;22.014;2022-09-13T04:27:58;98979.70;;;13.02;72.53
65010;BME280;51556;50.002;22.014;2022-09-13T04:30:25;98975.27;;;13.02;72.29
65010;BME280;51556;50.002;22.014;2022-09-13T04:32:51;98975.48;;;13.01;72.46
65010;BME280;51556;50.002;22.014;2022-09-13T04:35:17;98972.48;;;13.01;72.51
65010;BME280;51556;50.002;22.014;2022-09-13T04:37:43;98973.08;;;13.03;72.46
65010;BME280;51556;50.002;22.014;2022-09-13T04:40:09;98969.05;;;13.03;72.36
65010;BME280;51556;50.002;22.014;2022-09-13T04:42:35;98975.41;;;12.99;72.88
65010;BME280;51556;50.002;22.014;2022-09-13T04:45:00;98980.47;;;12.97;73.05
65010;BME280;51556;50.002;22.014;2022-09-13T04:47:26;98986.98;;;12.93;73.68
65010;BME280;51556;50.002;22.014;2022-09-13T04:49:52;98986.65;;;12.88;73.88
65010;BME280;51556;50.002;22.014;2022-09-13T04:52:17;98988.50;;;12.86;73.92
65010;BME280;51556;50.002;22.014;2022-09-13T04:54:43;98988.33;;;12.86;74.09
65010;BME280;51556;50.002;22.014;2022-09-13T04:57:11;98992.61;;;12.89;74.20
65010;BME280;51556;50.002;22.014;2022-09-13T04:59:36;98990.80;;;12.90;74.57
65010;BME280;51556;50.002;22.014;2022-09-13T05:02:02;98989.64;;;12.88;74.45
65010;BME280;51556;50.002;22.014;2022-09-13T05:04:29;98989.52;;;12.87;74.71
65010;BME280;51556;50.002;22.014;2022-09-13T05:06:55;98989.96;;;12.89;74.74
65010;BME280;51556;50.002;22.014;2022-09-13T05:09:23;98986.59;;;12.90;74.78
65010;BME280;51556;50.002;22.014;2022-09-13T05:11:49;98993.45;;;12.90;74.83
65010;BME280;51556;50.002;22.014;2022-09-13T05:14:14;98992.27;;;12.93;75.02
65010;BME280;51556;50.002;22.014;2022-09-13T05:16:40;98991.13;;;12.95;75.18
65010;BME280;51556;50.002;22.014;2022-09-13T05:19:06;98991.31;;;12.95;75.33
65010;BME280;51556;50.002;22.014;2022-09-13T05:21:32;98986.45;;;12.97;75.29
65010;BME280;51556;50.002;22.014;2022-09-13T05:23:58;98985.83;;;12.99;75.38
65010;BME280;51556;50.002;22.014;2022-09-13T05:26:25;98983.14;;;13.04;75.26
65010;BME280;51556;50.002;22.014;2022-09-13T05:28:54;98979.59;;;13.09;75.53
65010;BME280;51556;50.002;22.014;2022-09-13T05:31:22;98981.30;;;13.14;75.12
65010;BME280;51556;50.002;22.014;2022-09-13T05:33:55;98981.23;;;13.21;75.23
65010;BME280;51556;50.002;22.014;2022-09-13T05:36:21;98982.27;;;13.25;75.26
65010;BME280;51556;50.002;22.014;2022-09-13T05:38:47;98976.27;;;13.30;75.17
65010;BME280;51556;50.002;22.014;2022-09-13T05:41:13;98977.86;;;13.37;75.03
65010;BME280;51556;50.002;22.014;2022-09-13T05:43:38;98975.92;;;13.42;74.75
65010;BME280;51556;50.002;22.014;2022-09-13T05:46:11;98974.92;;;13.48;74.54
65010;BME280;51556;50.002;22.014;2022-09-13T05:48:37;98972.44;;;13.45;74.05
65010;BME280;51556;50.002;22.014;2022-09-13T05:51:08;98971.95;;;13.40;74.26
65010;BME280;51556;50.002;22.014;2022-09-13T05:53:36;98967.02;;;13.38;74.27
65010;BME280;51556;50.002;22.014;2022-09-13T05:56:05;98965.25;;;13.38;74.13
65010;BME280;51556;50.002;22.014;2022-09-13T05:58:31;98964.94;;;13.38;73.71
65010;BME280;51556;50.002;22.014;2022-09-13T06:00:56;98962.15;;;13.41;73.61
65010;BME280;51556;50.002;22.014;2022-09-13T06:03:23;98960.46;;;13.39;72.57
65010;BME280;51556;50.002;22.014;2022-09-13T06:05:49;98963.67;;;13.35;72.60
65010;BME280;51556;50.002;22.014;2022-09-13T06:08:18;98957.31;;;13.38;72.78
65010;BME280;51556;50.002;22.014;2022-09-13T06:10:55;98955.48;;;13.44;72.54
65010;BME280;51556;50.002;22.014;2022-09-13T06:13:22;98958.13;;;13.49;72.54
65010;BME280;51556;50.002;22.014;2022-09-13T06:15:47;98956.80;;;13.54;72.16
65010;BME280;51556;50.002;22.014;2022-09-13T06:18:13;98955.50;;;13.56;71.27
65010;BME280;51556;50.002;22.014;2022-09-13T06:20:39;98954.60;;;13.56;70.81
65010;BME280;51556;50.002;22.014;2022-09-13T06:23:04;98949.41;;;13.54;70.23
65010;BME280;51556;50.002;22.014;2022-09-13T06:25:30;98952.63;;;13.57;71.12
65010;BME280;51556;50.002;22.014;2022-09-13T06:27:55;98957.30;;;13.63;70.64
65010;BME280;51556;50.002;22.014;2022-09-13T06:30:21;98960.86;;;13.67;70.65
65010;BME280;51556;50.002;22.014;2022-09-13T06:32:46;98961.80;;;13.69;69.91
65010;BME280;51556;50.002;22.014;2022-09-13T06:35:12;98958.77;;;13.70;69.75
65010;BME280;51556;50.002;22.014;2022-09-13T06:37:37;98958.23;;;13.74;69.77
65010;BME280;51556;50.002;22.014;2022-09-13T06:40:03;98958.69;;;13.72;69.00
65010;BME280;51556;50.002;22.014;2022-09-13T06:42:33;98958.64;;;13.76;70.01
65010;BME280;51556;50.002;22.014;2022-09-13T06:44:59;98959.77;;;13.86;70.01
65010;BME280;51556;50.002;22.014;2022-09-13T06:47:24;98964.64;;;13.92;68.89
65010;BME280;51556;50.002;22.014;2022-09-13T06:49:50;98963.77;;;13.88;68.90
65010;BME280;51556;50.002;22.014;2022-09-13T06:52:15;98964.05;;;13.90;68.60
65010;BME280;51556;50.002;22.014;2022-09-13T06:54:41;98964.08;;;13.93;69.16
65010;BME280;51556;50.002;22.014;2022-09-13T06:57:06;98966.56;;;13.97;68.26
65010;BME280;51556;50.002;22.014;2022-09-13T06:59:31;98967.75;;;13.98;68.39
65010;BME280;51556;50.002;22.014;2022-09-13T07:01:59;98965.18;;;14.00;68.72
65010;BME280;51556;50.002;22.014;2022-09-13T07:04:24;98967.94;;;14.05;68.08
65010;BME280;51556;50.002;22.014;2022-09-13T07:06:50;98965.73;;;14.08;68.02
65010;BME280;51556;50.002;22.014;2022-09-13T07:09:18;98968.27;;;14.10;67.11
65010;BME280;51556;50.002;22.014;2022-09-13T07:11:47;98967.86;;;14.14;67.62
65010;BME280;51556;50.002;22.014;2022-09-13T07:14:15;98967.86;;;14.19;67.33
65010;BME280;51556;50.002;22.014;2022-09-13T07:16:41;98967.61;;;14.24;67.76
65010;BME280;51556;50.002;22.014;2022-09-13T07:19:12;98964.90;;;14.33;67.14
65010;BME280;51556;50.002;22.014;2022-09-13T07:21:38;98967.80;;;14.35;66.75
65010;BME280;51556;50.002;22.014;2022-09-13T07:24:03;98961.92;;;14.40;67.02
65010;BME280;51556;50.002;22.014;2022-09-13T07:26:29;98965.39;;;14.46;67.03
65010;BME280;51556;50.002;22.014;2022-09-13T07:28:58;98967.75;;;14.55;67.12
65010;BME280;51556;50.002;22.014;2022-09-13T07:31:30;98971.33;;;14.58;65.72
65010;BME280;51556;50.002;22.014;2022-09-13T07:34:22;98969.94;;;14.61;66.38
65010;BME280;51556;50.002;22.014;2022-09-13T07:36:47;98970.52;;;14.71;66.57
65010;BME280;51556;50.002;22.014;2022-09-13T07:39:14;98968.17;;;14.80;66.40
65010;BME280;51556;50.002;22.014;2022-09-13T07:41:40;98966.23;;;14.90;66.41
65010;BME280;51556;50.002;22.014;2022-09-13T07:44:06;98966.83;;;14.99;66.36
65010;BME280;51556;50.002;22.014;2022-09-13T07:46:34;98967.21;;;15.06;65.99
65010;BME280;51556;50.002;22.014;2022-09-13T07:49:04;98968.02;;;15.15;66.41
65010;BME280;51556;50.002;22.014;2022-09-13T07:51:35;98971.44;;;15.23;65.96
65010;BME280;51556;50.002;22.014;2022-09-13T07:54:04;98967.00;;;15.27;65.36
65010;BME280;51556;50.002;22.014;2022-09-13T07:56:33;98969.52;;;15.33;65.37
65010;BME280;51556;50.002;22.014;2022-09-13T07:59:00;98968.69;;;15.39;65.31
65010;BME280;51556;50.002;22.014;2022-09-13T08:01:33;98969.96;;;15.42;64.76
65010;BME280;51556;50.002;22.014;2022-09-13T08:04:00;98968.04;;;15.45;64.55
65010;BME280;51556;50.002;22.014;2022-09-13T08:06:29;98971.55;;;15.50;64.74
65010;BME280;51556;50.002;22.014;2022-09-13T08:08:55;98972.52;;;15.62;65.54
65010;BME280;51556;50.002;22.014;2022-09-13T08:11:30;98972.77;;;15.78;65.31
65010;BME280;51556;50.002;22.014;2022-09-13T08:13:57;98969.49;;;15.89;63.72
65010;BME280;51556;50.002;22.014;2022-09-13T08:16:24;98970.86;;;15.96;63.73
65010;BME280;51556;50.002;22.014;2022-09-13T08:18:51;98971.79;;;16.09;63.80
65010;BME280;51556;50.002;22.014;2022-09-13T08:21:17;98973.88;;;16.16;61.62
65010;BME280;51556;50.002;22.014;2022-09-13T08:23:43;98970.86;;;16.20;61.60
65010;BME280;51556;50.002;22.014;2022-09-13T08:26:10;98962.72;;;16.25;61.28
65010;BME280;51556;50.002;22.014;2022-09-13T08:28:37;98959.20;;;16.34;61.77
65010;BME280;51556;50.002;22.014;2022-09-13T08:31:11;98955.48;;;16.46;60.52
65010;BME280;51556;50.002;22.014;2022-09-13T08:33:38;98955.65;;;16.56;61.46
65010;BME280;51556;50.002;22.014;2022-09-13T08:36:04;98954.59;;;16.66;61.58
65010;BME280;51556;50.002;22.014;2022-09-13T08:38:30;98955.95;;;16.77;61.33
65010;BME280;51556;50.002;22.014;2022-09-13T08:41:03;98949.91;;;16.83;57.93
65010;BME280;51556;50.002;22.014;2022-09-13T08:43:43;98952.48;;;16.91;58.63
65010;BME280;51556;50.002;22.014;2022-09-13T08:46:28;98950.17;;;17.00;56.98
65010;BME280;51556;50.002;22.014;2022-09-13T08:49:00;98956.70;;;17.09;58.51
65010;BME280;51556;50.002;22.014;2022-09-13T08:51:55;98952.42;;;17.15;56.13
65010;BME280;51556;50.002;22.014;2022-09-13T08:54:23;98946.00;;;17.16;55.94
65010;BME280;51556;50.002;22.014;2022-09-13T09:02:46;98944.55;;;17.34;54.43
65010;BME280;51556;50.002;22.014;2022-09-13T09:05:17;98945.73;;;17.45;54.21
65010;BME280;51556;50.002;22.014;2022-09-13T09:08:12;98944.52;;;17.47;52.26
65010;BME280;51556;50.002;22.014;2022-09-13T09:10:47;98943.41;;;17.47;53.16
65010;BME280;51556;50.002;22.014;2022-09-13T09:13:27;98939.19;;;17.58;54.37
65010;BME280;51556;50.002;22.014;2022-09-13T09:15:55;98935.14;;;17.67;51.43
65010;BME280;51556;50.002;22.014;2022-09-13T09:18:28;98936.34;;;17.76;53.16
65010;BME280;51556;50.002;22.014;2022-09-13T09:20:57;98931.90;;;17.90;53.21
65010;BME280;51556;50.002;22.014;2022-09-13T09:23:50;98931.86;;;18.02;53.36
65010;BME280;51556;50.002;22.014;2022-09-13T09:26:25;98926.52;;;18.13;53.01
65010;BME280;51556;50.002;22.014;2022-09-13T09:28:54;98926.42;;;18.20;50.66
65010;BME280;51556;50.002;22.014;2022-09-13T09:35:32;98926.96;;;18.21;50.57
65010;BME280;51556;50.002;22.014;2022-09-13T09:37:36;98927.41;;;18.24;50.11
65010;BME280;51556;50.002;22.014;2022-09-13T09:40:04;98919.92;;;18.33;50.39
65010;BME280;51556;50.002;22.014;2022-09-13T09:42:45;98920.47;;;18.44;50.12
65010;BME280;51556;50.002;22.014;2022-09-13T09:47:54;98915.08;;;18.47;48.07
65010;BME280;51556;50.002;22.014;2022-09-13T09:50:25;98917.55;;;18.51;47.73
65010;BME280;51556;50.002;22.014;2022-09-13T09:58:06;98914.55;;;18.66;48.44
65010;BME280;51556;50.002;22.014;2022-09-13T10:00:35;98910.01;;;18.65;47.75
65010;BME280;51556;50.002;22.014;2022-09-13T10:03:16;98907.68;;;18.74;48.66
65010;BME280;51556;50.002;22.014;2022-09-13T10:05:42;98896.41;;;18.82;47.48
65010;BME280;51556;50.002;22.014;2022-09-13T10:08:24;98900.89;;;18.98;48.55
65010;BME280;51556;50.002;22.014;2022-09-13T10:10:55;98894.56;;;19.04;47.32
65010;BME280;51556;50.002;22.014;2022-09-13T10:13:23;98894.23;;;19.12;46.59
65010;BME280;51556;50.002;22.014;2022-09-13T10:18:32;98900.07;;;19.18;45.43
65010;BME280;51556;50.002;22.014;2022-09-13T10:21:03;98893.94;;;19.11;46.12
65010;BME280;51556;50.002;22.014;2022-09-13T10:23:30;98887.00;;;19.23;47.08
65010;BME280;51556;50.002;22.014;2022-09-13T10:28:33;98882.08;;;19.66;47.76
65010;BME280;51556;50.002;22.014;2022-09-13T10:31:09;98884.77;;;19.81;46.40
65010;BME280;51556;50.002;22.014;2022-09-13T10:34:00;98889.17;;;19.84;45.03
65010;BME280;51556;50.002;22.014;2022-09-13T10:36:30;98886.23;;;19.81;44.74
65010;BME280;51556;50.002;22.014;2022-09-13T10:38:58;98883.41;;;19.98;44.66
65010;BME280;51556;50.002;22.014;2022-09-13T10:41:39;98880.79;;;20.12;44.21
65010;BME280;51556;50.002;22.014;2022-09-13T10:44:56;98880.92;;;20.34;44.50
65010;BME280;51556;50.002;22.014;2022-09-13T10:47:48;98880.62;;;20.70;44.01
65010;BME280;51556;50.002;22.014;2022-09-13T10:50:28;98876.27;;;20.88;44.12
65010;BME280;51556;50.002;22.014;2022-09-13T10:53:37;98875.54;;;20.97;43.22
65010;BME280;51556;50.002;22.014;2022-09-13T10:56:25;98872.89;;;20.99;43.78
65010;BME280;51556;50.002;22.014;2022-09-13T11:07:20;98874.97;;;20.93;43.17
65010;BME280;51556;50.002;22.014;2022-09-13T11:10:08;98874.48;;;21.06;42.87
65010;BME280;51556;50.002;22.014;2022-09-13T11:19:02;98869.22;;;21.14;41.28
65010;BME280;51556;50.002;22.014;2022-09-13T11:24:21;98867.02;;;21.20;41.62
65010;BME280;51556;50.002;22.014;2022-09-13T11:30:16;98855.77;;;20.78;41.87
65010;BME280;51556;50.002;22.014;2022-09-13T11:35:28;98851.22;;;20.99;42.38
65010;BME280;51556;50.002;22.014;2022-09-13T11:41:08;98851.95;;;21.44;42.75
65010;BME280;51556;50.002;22.014;2022-09-13T11:47:02;98843.11;;;21.74;40.04
65010;BME280;51556;50.002;22.014;2022-09-13T11:58:17;98829.20;;;21.88;40.42
65010;BME280;51556;50.002;22.014;2022-09-13T12:00:54;98823.64;;;22.18;40.82
65010;BME280;51556;50.002;22.014;2022-09-13T12:06:25;98816.52;;;22.19;40.91
65010;BME280;51556;50.002;22.014;2022-09-13T12:14:58;98810.33;;;22.42;41.40
65010;BME280;51556;50.002;22.014;2022-09-13T12:17:47;98807.97;;;22.59;41.33
65010;BME280;51556;50.002;22.014;2022-09-13T12:23:18;98809.16;;;22.62;39.65
65010;BME280;51556;50.002;22.014;2022-09-13T12:26:08;98812.20;;;22.60;39.15
65010;BME280;51556;50.002;22.014;2022-09-13T12:28:48;98806.55;;;22.53;39.40
65010;BME280;51556;50.002;22.014;2022-09-13T12:31:23;98803.40;;;22.52;40.00
65010;BME280;51556;50.002;22.014;2022-09-13T12:33:50;98802.67;;;22.48;39.93
65010;BME280;51556;50.002;22.014;2022-09-13T12:44:34;98792.04;;;21.96;40.08
65010;BME280;51556;50.002;22.014;2022-09-13T12:47:39;98789.89;;;21.87;40.93
65010;BME280;51556;50.002;22.014;2022-09-13T12:52:45;98781.83;;;22.23;41.10
65010;BME280;51556;50.002;22.014;2022-09-13T13:03:25;98779.17;;;21.87;38.83
65010;BME280;51556;50.002;22.014;2022-09-13T13:06:06;98773.55;;;21.54;39.57
65010;BME280;51556;50.002;22.014;2022-09-13T13:08:33;98771.08;;;21.34;40.50
65010;BME280;51556;50.002;22.014;2022-09-13T13:11:10;98766.04;;;21.29;41.65
65010;BME280;51556;50.002;22.014;2022-09-13T13:13:45;98762.70;;;21.28;42.08
65010;BME280;51556;50.002;22.014;2022-09-13T13:18:47;98767.05;;;21.19;42.63
65010;BME280;51556;50.002;22.014;2022-09-13T13:26:56;98756.84;;;21.18;42.91
65010;BME280;51556;50.002;22.014;2022-09-13T13:34:43;98752.53;;;21.12;43.30
65010;BME280;51556;50.002;22.014;2022-09-13T13:39:36;98753.66;;;21.27;44.16
65010;BME280;51556;50.002;22.014;2022-09-13T13:42:22;98747.08;;;21.33;43.08
65010;BME280;51556;50.002;22.014;2022-09-13T13:49:52;98746.90;;;21.29;42.12
65010;BME280;51556;50.002;22.014;2022-09-13T13:55:01;98744.30;;;21.40;42.82
65010;BME280;51556;50.002;22.014;2022-09-13T14:00:50;98729.85;;;21.50;42.86
65010;BME280;51556;50.002;22.014;2022-09-13T14:06:11;98719.67;;;21.83;42.41
65010;BME280;51556;50.002;22.014;2022-09-13T14:22:12;98696.36;;;23.14;39.27
65010;BME280;51556;50.002;22.014;2022-09-13T14:24:48;98698.89;;;23.24;39.60
65010;BME280;51556;50.002;22.014;2022-09-13T14:29:49;98698.30;;;23.12;38.50
65010;BME280;51556;50.002;22.014;2022-09-13T14:32:19;98698.52;;;23.02;39.41
65010;BME280;51556;50.002;22.014;2022-09-13T14:37:25;98704.31;;;22.89;39.56
65010;BME280;51556;50.002;22.014;2022-09-13T14:40:15;98708.04;;;22.81;40.11
65010;BME280;51556;50.002;22.014;2022-09-13T14:42:43;98705.09;;;22.77;40.00
65010;BME280;51556;50.002;22.014;2022-09-13T14:45:19;98704.48;;;22.65;40.20
65010;BME280;51556;50.002;22.014;2022-09-13T14:47:54;98700.92;;;22.53;40.84
65010;BME280;51556;50.002;22.014;2022-09-13T14:50:26;98698.87;;;22.51;41.27
65010;BME280;51556;50.002;22.014;2022-09-13T14:55:38;98699.06;;;22.45;41.94
65010;BME280;51556;50.002;22.014;2022-09-13T14:58:23;98700.27;;;22.37;41.51
65010;BME280;51556;50.002;22.014;2022-09-13T15:01:14;98695.43;;;22.18;41.21
65010;BME280;51556;50.002;22.014;2022-09-13T15:03:44;98691.72;;;22.04;42.21
65010;BME280;51556;50.002;22.014;2022-09-13T15:06:28;98681.18;;;21.99;42.58
65010;BME280;51556;50.002;22.014;2022-09-13T15:09:21;98668.28;;;21.86;42.39
65010;BME280;51556;50.002;22.014;2022-09-13T15:14:35;98681.19;;;21.56;43.50
65010;BME280;51556;50.002;22.014;2022-09-13T15:17:09;98684.04;;;21.50;43.71
65010;BME280;51556;50.002;22.014;2022-09-13T15:20:02;98681.37;;;21.45;43.50
65010;BME280;51556;50.002;22.014;2022-09-13T15:22:33;98674.70;;;21.34;43.48
65010;BME280;51556;50.002;22.014;2022-09-13T15:25:00;98673.59;;;21.26;44.15
65010;BME280;51556;50.002;22.014;2022-09-13T15:27:52;98667.58;;;21.20;44.49
65010;BME280;51556;50.002;22.014;2022-09-13T15:30:29;98668.41;;;21.14;44.64
65010;BME280;51556;50.002;22.014;2022-09-13T15:33:28;98668.48;;;21.11;45.00
65010;BME280;51556;50.002;22.014;2022-09-13T15:36:26;98664.34;;;21.05;44.89
65010;BME280;51556;50.002;22.014;2022-09-13T15:39:15;98668.89;;;20.97;44.94
65010;BME280;51556;50.002;22.014;2022-09-13T15:41:54;98674.93;;;20.84;45.35
65010;BME280;51556;50.002;22.014;2022-09-13T15:44:21;98670.39;;;20.78;45.95
65010;BME280;51556;50.002;22.014;2022-09-13T15:46:49;98665.27;;;20.80;46.25
65010;BME280;51556;50.002;22.014;2022-09-13T15:49:23;98668.93;;;20.77;46.31
65010;BME280;51556;50.002;22.014;2022-09-13T15:51:55;98670.03;;;20.79;46.69
65010;BME280;51556;50.002;22.014;2022-09-13T15:54:22;98672.08;;;20.84;46.54
65010;BME280;51556;50.002;22.014;2022-09-13T15:56:48;98669.11;;;20.87;46.82
65010;BME280;51556;50.002;22.014;2022-09-13T15:59:20;98668.45;;;20.89;46.91
65010;BME280;51556;50.002;22.014;2022-09-13T16:01:47;98662.69;;;20.90;47.22
65010;BME280;51556;50.002;22.014;2022-09-13T16:04:14;98658.33;;;20.88;47.23
65010;BME280;51556;50.002;22.014;2022-09-13T16:06:40;98655.75;;;20.87;47.19
65010;BME280;51556;50.002;22.014;2022-09-13T16:09:21;98652.15;;;20.85;47.25
65010;BME280;51556;50.002;22.014;2022-09-13T16:11:49;98651.84;;;20.84;47.62
65010;BME280;51556;50.002;22.014;2022-09-13T16:14:16;98652.61;;;20.81;47.86
65010;BME280;51556;50.002;22.014;2022-09-13T16:16:45;98647.31;;;20.79;47.82
65010;BME280;51556;50.002;22.014;2022-09-13T16:19:18;98651.88;;;20.75;48.05
65010;BME280;51556;50.002;22.014;2022-09-13T16:21:47;98648.67;;;20.70;48.44
65010;BME280;51556;50.002;22.014;2022-09-13T16:24:14;98648.97;;;20.64;48.61
65010;BME280;51556;50.002;22.014;2022-09-13T16:26:43;98650.13;;;20.58;48.94
65010;BME280;51556;50.002;22.014;2022-09-13T16:29:10;98652.11;;;20.51;49.34
65010;BME280;51556;50.002;22.014;2022-09-13T16:31:36;98648.55;;;20.46;49.08
65010;BME280;51556;50.002;22.014;2022-09-13T16:34:01;98648.98;;;20.43;49.00
65010;BME280;51556;50.002;22.014;2022-09-13T16:36:27;98649.17;;;20.36;49.04